Terminal Aerodrome Forecast
Issued by NWS Goodland, KS

Home | Current Version | Previous Version | Text Only | Print | Product List | Glossary On
Versions: 1 2 3 4 5 6 7 8 9 10 11 12
998
FTUS43 KGLD 072323
TAFGLD
TAF
KGLD 072323Z 0800/0824 33020G30KT P6SM FEW250 WS020/34050KT
     FM080600 33015G25KT P6SM FEW250=

USA.gov is the U.S. government's official web portal to all federal, state and local government web resources and services.